sensor_id;sensor_type;location;lat;lon;timestamp;temperature;humidity
9265;DHT22;4669;49.594;10.958;2023-08-12T04:29:42;19.60;99.90
9265;DHT22;4669;49.594;10.958;2023-08-12T04:34:45;19.60;99.90
9265;DHT22;4669;49.594;10.958;2023-08-12T04:39:48;19.50;99.90
9265;DHT22;4669;49.594;10.958;2023-08-12T04:44:52;19.60;99.90
9265;DHT22;4669;49.594;10.958;2023-08-12T04:49:54;19.60;99.90
9265;DHT22;4669;49.594;10.958;2023-08-12T04:54:56;19.70;99.90
9265;DHT22;4669;49.594;10.958;2023-08-12T05:00:01;19.60;99.90
9265;DHT22;4669;49.594;10.958;2023-08-12T05:05:03;19.70;99.90
9265;DHT22;4669;49.594;10.958;2023-08-12T05:10:08;19.70;99.90
9265;DHT22;4669;49.594;10.958;2023-08-12T05:15:12;19.70;99.90
9265;DHT22;4669;49.594;10.958;2023-08-12T05:20:14;19.70;99.90
9265;DHT22;4669;49.594;10.958;2023-08-12T05:25:16;19.70;99.90
9265;DHT22;4669;49.594;10.958;2023-08-12T05:30:20;19.70;99.90
9265;DHT22;4669;49.594;10.958;2023-08-12T05:35:22;19.70;99.90
9265;DHT22;4669;49.594;10.958;2023-08-12T05:40:23;19.90;99.90
9265;DHT22;4669;49.594;10.958;2023-08-12T05:45:26;20.10;99.90
9265;DHT22;4669;49.594;10.958;2023-08-12T05:50:28;20.30;99.90
9265;DHT22;4669;49.594;10.958;2023-08-12T05:55:31;20.40;99.90
9265;DHT22;4669;49.594;10.958;2023-08-12T06:00:36;20.50;99.90
9265;DHT22;4669;49.594;10.958;2023-08-12T06:05:39;20.50;99.90
9265;DHT22;4669;49.594;10.958;2023-08-12T06:10:42;20.50;99.90
9265;DHT22;4669;49.594;10.958;2023-08-12T06:15:45;20.60;99.90
9265;DHT22;4669;49.594;10.958;2023-08-12T06:20:46;20.60;99.90
9265;DHT22;4669;49.594;10.958;2023-08-12T06:25:48;20.60;99.90
9265;DHT22;4669;49.594;10.958;2023-08-12T06:30:51;20.70;99.90
9265;DHT22;4669;49.594;10.958;2023-08-12T06:35:54;20.70;99.90
9265;DHT22;4669;49.594;10.958;2023-08-12T06:40:56;20.80;99.90
9265;DHT22;4669;49.594;10.958;2023-08-12T06:45:59;20.90;99.90
9265;DHT22;4669;49.594;10.958;2023-08-12T06:51:01;21.00;99.90
9265;DHT22;4669;49.594;10.958;2023-08-12T06:56:07;21.10;99.90
9265;DHT22;4669;49.594;10.958;2023-08-12T07:01:10;21.30;99.90
9265;DHT22;4669;49.594;10.958;2023-08-12T07:06:12;21.30;99.90
9265;DHT22;4669;49.594;10.958;2023-08-12T07:11:14;21.40;99.90
9265;DHT22;4669;49.594;10.958;2023-08-12T07:16:17;21.40;99.90
9265;DHT22;4669;49.594;10.958;2023-08-12T07:21:19;21.50;99.90
9265;DHT22;4669;49.594;10.958;2023-08-12T07:26:21;21.60;99.90
9265;DHT22;4669;49.594;10.958;2023-08-12T07:31:24;21.70;99.90
9265;DHT22;4669;49.594;10.958;2023-08-12T07:36:26;21.80;99.90
9265;DHT22;4669;49.594;10.958;2023-08-12T07:41:28;21.90;99.90
9265;DHT22;4669;49.594;10.958;2023-08-12T07:46:31;22.00;99.90
9265;DHT22;4669;49.594;10.958;2023-08-12T07:51:33;22.10;99.90
9265;DHT22;4669;49.594;10.958;2023-08-12T07:56:35;22.20;99.90
9265;DHT22;4669;49.594;10.958;2023-08-12T08:01:38;22.20;99.90
9265;DHT22;4669;49.594;10.958;2023-08-12T08:06:40;22.40;99.90
9265;DHT22;4669;49.594;10.958;2023-08-12T08:11:42;22.40;99.90
9265;DHT22;4669;49.594;10.958;2023-08-12T08:16:45;22.50;99.90
9265;DHT22;4669;49.594;10.958;2023-08-12T08:21:47;22.50;99.90
9265;DHT22;4669;49.594;10.958;2023-08-12T08:26:49;22.60;99.90
9265;DHT22;4669;49.594;10.958;2023-08-12T08:31:52;22.80;99.90
9265;DHT22;4669;49.594;10.958;2023-08-12T08:36:54;22.80;99.90
9265;DHT22;4669;49.594;10.958;2023-08-12T08:41:56;23.00;99.90
9265;DHT22;4669;49.594;10.958;2023-08-12T08:47:01;23.10;99.90
9265;DHT22;4669;49.594;10.958;2023-08-12T08:52:04;23.10;99.90
9265;DHT22;4669;49.594;10.958;2023-08-12T08:57:06;23.30;99.90
9265;DHT22;4669;49.594;10.958;2023-08-12T09:02:15;23.40;99.90
9265;DHT22;4669;49.594;10.958;2023-08-12T09:07:18;23.50;99.90
9265;DHT22;4669;49.594;10.958;2023-08-12T09:12:20;23.70;99.90
9265;DHT22;4669;49.594;10.958;2023-08-12T09:17:24;23.60;99.90
9265;DHT22;4669;49.594;10.958;2023-08-12T09:22:26;23.60;99.90
9265;DHT22;4669;49.594;10.958;2023-08-12T09:27:30;23.40;99.90
9265;DHT22;4669;49.594;10.958;2023-08-12T09:32:33;23.40;99.90
9265;DHT22;4669;49.594;10.958;2023-08-12T09:37:36;23.40;99.90
9265;DHT22;4669;49.594;10.958;2023-08-12T09:42:44;23.60;99.90
9265;DHT22;4669;49.594;10.958;2023-08-12T09:47:48;23.60;99.90
9265;DHT22;4669;49.594;10.958;2023-08-12T09:52:50;23.70;99.90
9265;DHT22;4669;49.594;10.958;2023-08-12T09:57:53;23.80;99.90
9265;DHT22;4669;49.594;10.958;2023-08-12T10:02:58;23.80;99.90
9265;DHT22;4669;49.594;10.958;2023-08-12T10:08:02;23.80;99.90
9265;DHT22;4669;49.594;10.958;2023-08-12T10:13:05;23.90;99.90
9265;DHT22;4669;49.594;10.958;2023-08-12T10:18:10;24.00;99.90
9265;DHT22;4669;49.594;10.958;2023-08-12T10:23:14;24.10;99.90
9265;DHT22;4669;49.594;10.958;2023-08-12T10:28:18;24.40;99.90
9265;DHT22;4669;49.594;10.958;2023-08-12T10:33:22;24.50;99.90
9265;DHT22;4669;49.594;10.958;2023-08-12T10:38:24;24.70;99.90
9265;DHT22;4669;49.594;10.958;2023-08-12T10:43:27;24.90;99.90
9265;DHT22;4669;49.594;10.958;2023-08-12T10:48:30;24.90;99.90
9265;DHT22;4669;49.594;10.958;2023-08-12T10:53:32;25.00;99.90
9265;DHT22;4669;49.594;10.958;2023-08-12T10:58:44;25.10;99.90
9265;DHT22;4669;49.594;10.958;2023-08-12T11:03:48;25.20;99.90
9265;DHT22;4669;49.594;10.958;2023-08-12T11:08:52;25.50;99.80
9265;DHT22;4669;49.594;10.958;2023-08-12T11:13:55;25.60;99.80
9265;DHT22;4669;49.594;10.958;2023-08-12T11:18:59;25.70;99.60
9265;DHT22;4669;49.594;10.958;2023-08-12T11:24:01;25.40;99.90
9265;DHT22;4669;49.594;10.958;2023-08-12T11:29:08;25.40;99.90
9265;DHT22;4669;49.594;10.958;2023-08-12T11:34:12;25.40;99.90
9265;DHT22;4669;49.594;10.958;2023-08-12T11:39:14;25.40;99.90
9265;DHT22;4669;49.594;10.958;2023-08-12T11:44:16;25.30;99.90
9265;DHT22;4669;49.594;10.958;2023-08-12T11:49:19;25.30;99.90
9265;DHT22;4669;49.594;10.958;2023-08-12T11:54:21;25.40;99.90
9265;DHT22;4669;49.594;10.958;2023-08-12T11:59:23;25.30;99.90
9265;DHT22;4669;49.594;10.958;2023-08-12T12:04:28;25.50;99.90
9265;DHT22;4669;49.594;10.958;2023-08-12T12:09:32;25.80;99.90
9265;DHT22;4669;49.594;10.958;2023-08-12T12:14:36;26.10;99.90
9265;DHT22;4669;49.594;10.958;2023-08-12T12:19:40;26.30;99.90
9265;DHT22;4669;49.594;10.958;2023-08-12T12:24:46;26.50;99.90
9265;DHT22;4669;49.594;10.958;2023-08-12T12:29:48;26.40;99.90
9265;DHT22;4669;49.594;10.958;2023-08-12T12:34:52;26.30;99.70
9265;DHT22;4669;49.594;10.958;2023-08-12T12:39:55;26.40;99.90
9265;DHT22;4669;49.594;10.958;2023-08-12T12:44:57;26.40;99.90
9265;DHT22;4669;49.594;10.958;2023-08-12T12:50:00;26.60;99.90
9265;DHT22;4669;49.594;10.958;2023-08-12T12:55:02;27.00;99.90
9265;DHT22;4669;49.594;10.958;2023-08-12T13:00:06;27.50;97.30
9265;DHT22;4669;49.594;10.958;2023-08-12T13:05:13;27.80;96.20
9265;DHT22;4669;49.594;10.958;2023-08-12T13:10:15;27.80;97.10
9265;DHT22;4669;49.594;10.958;2023-08-12T13:15:17;27.60;96.60
9265;DHT22;4669;49.594;10.958;2023-08-12T13:20:21;27.40;98.00
9265;DHT22;4669;49.594;10.958;2023-08-12T13:25:23;27.70;96.40
9265;DHT22;4669;49.594;10.958;2023-08-12T13:30:25;27.90;95.90
9265;DHT22;4669;49.594;10.958;2023-08-12T13:35:28;27.70;95.50
9265;DHT22;4669;49.594;10.958;2023-08-12T13:40:30;27.40;96.30
9265;DHT22;4669;49.594;10.958;2023-08-12T13:45:32;27.30;96.50
9265;DHT22;4669;49.594;10.958;2023-08-12T13:50:35;27.00;97.00
9265;DHT22;4669;49.594;10.958;2023-08-12T13:55:37;26.60;98.20
9265;DHT22;4669;49.594;10.958;2023-08-12T14:00:39;25.80;99.90
9265;DHT22;4669;49.594;10.958;2023-08-12T14:05:44;23.50;99.90
9265;DHT22;4669;49.594;10.958;2023-08-12T14:10:46;22.00;99.90
9265;DHT22;4669;49.594;10.958;2023-08-12T14:15:48;21.20;99.90
9265;DHT22;4669;49.594;10.958;2023-08-12T14:20:51;20.80;99.90
9265;DHT22;4669;49.594;10.958;2023-08-12T14:25:53;20.50;99.90
9265;DHT22;4669;49.594;10.958;2023-08-12T14:30:55;20.30;99.90
9265;DHT22;4669;49.594;10.958;2023-08-12T14:35:59;20.00;99.90
9265;DHT22;4669;49.594;10.958;2023-08-12T14:41:01;20.20;99.90
9265;DHT22;4669;49.594;10.958;2023-08-12T14:46:03;20.40;99.90
9265;DHT22;4669;49.594;10.958;2023-08-12T14:51:06;20.50;99.90
9265;DHT22;4669;49.594;10.958;2023-08-12T14:56:08;20.70;99.90
9265;DHT22;4669;49.594;10.958;2023-08-12T15:01:09;20.80;99.90
9265;DHT22;4669;49.594;10.958;2023-08-12T15:06:13;20.80;99.90
9265;DHT22;4669;49.594;10.958;2023-08-12T15:11:15;20.80;99.90
9265;DHT22;4669;49.594;10.958;2023-08-12T15:16:17;20.90;99.90
9265;DHT22;4669;49.594;10.958;2023-08-12T15:21:20;20.90;99.90
9265;DHT22;4669;49.594;10.958;2023-08-12T15:26:22;20.90;99.90
9265;DHT22;4669;49.594;10.958;2023-08-12T15:31:24;21.00;99.90
9265;DHT22;4669;49.594;10.958;2023-08-12T15:36:27;20.90;99.90
9265;DHT22;4669;49.594;10.958;2023-08-12T15:41:29;20.90;99.90
9265;DHT22;4669;49.594;10.958;2023-08-12T15:46:31;20.80;99.90
9265;DHT22;4669;49.594;10.958;2023-08-12T15:51:34;20.80;99.90
9265;DHT22;4669;49.594;10.958;2023-08-12T15:56:36;20.80;99.90
9265;DHT22;4669;49.594;10.958;2023-08-12T16:01:38;20.80;99.90
9265;DHT22;4669;49.594;10.958;2023-08-12T16:06:41;20.80;99.90
9265;DHT22;4669;49.594;10.958;2023-08-12T16:11:43;20.90;99.90
9265;DHT22;4669;49.594;10.958;2023-08-12T16:16:45;21.50;99.90
9265;DHT22;4669;49.594;10.958;2023-08-12T16:21:48;22.30;99.90
9265;DHT22;4669;49.594;10.958;2023-08-12T16:26:50;22.50;99.90
9265;DHT22;4669;49.594;10.958;2023-08-12T16:31:52;22.50;99.90
9265;DHT22;4669;49.594;10.958;2023-08-12T16:36:55;22.90;99.90
9265;DHT22;4669;49.594;10.958;2023-08-12T16:41:57;23.10;99.90
9265;DHT22;4669;49.594;10.958;2023-08-12T16:46:59;23.10;99.90
9265;DHT22;4669;49.594;10.958;2023-08-12T16:52:02;22.90;99.90
9265;DHT22;4669;49.594;10.958;2023-08-12T16:57:04;22.60;99.90
9265;DHT22;4669;49.594;10.958;2023-08-12T17:02:06;22.50;99.90
9265;DHT22;4669;49.594;10.958;2023-08-12T17:07:10;22.30;99.90
9265;DHT22;4669;49.594;10.958;2023-08-12T17:12:12;22.20;99.90
9265;DHT22;4669;49.594;10.958;2023-08-12T17:17:14;22.10;99.90
9265;DHT22;4669;49.594;10.958;2023-08-12T17:22:17;22.10;99.90
9265;DHT22;4669;49.594;10.958;2023-08-12T17:27:19;22.00;99.90
9265;DHT22;4669;49.594;10.958;2023-08-12T17:32:21;22.00;99.90
9265;DHT22;4669;49.594;10.958;2023-08-12T17:37:24;22.00;99.90
9265;DHT22;4669;49.594;10.958;2023-08-12T17:42:26;22.00;99.90
9265;DHT22;4669;49.594;10.958;2023-08-12T17:47:28;22.00;99.90
9265;DHT22;4669;49.594;10.958;2023-08-12T17:52:31;22.00;99.90
9265;DHT22;4669;49.594;10.958;2023-08-12T17:57:33;22.00;99.90
9265;DHT22;4669;49.594;10.958;2023-08-12T18:02:34;21.90;99.90
9265;DHT22;4669;49.594;10.958;2023-08-12T18:07:38;21.90;99.90
9265;DHT22;4669;49.594;10.958;2023-08-12T18:12:40;21.80;99.90
9265;DHT22;4669;49.594;10.958;2023-08-12T18:17:41;21.90;99.90
9265;DHT22;4669;49.594;10.958;2023-08-12T18:22:45;21.90;99.90
9265;DHT22;4669;49.594;10.958;2023-08-12T18:27:47;21.90;99.90
9265;DHT22;4669;49.594;10.958;2023-08-12T18:32:49;21.90;99.90
9265;DHT22;4669;49.594;10.958;2023-08-12T18:37:52;21.90;99.90
9265;DHT22;4669;49.594;10.958;2023-08-12T18:42:54;21.90;99.90
9265;DHT22;4669;49.594;10.958;2023-08-12T18:47:56;21.90;99.90
9265;DHT22;4669;49.594;10.958;2023-08-12T18:52:59;21.90;99.90
9265;DHT22;4669;49.594;10.958;2023-08-12T18:58:01;21.80;99.90
9265;DHT22;4669;49.594;10.958;2023-08-12T19:03:03;21.80;99.90
9265;DHT22;4669;49.594;10.958;2023-08-12T19:08:06;21.70;99.90
9265;DHT22;4669;49.594;10.958;2023-08-12T19:13:08;21.70;99.90
9265;DHT22;4669;49.594;10.958;2023-08-12T19:18:10;21.70;99.90
9265;DHT22;4669;49.594;10.958;2023-08-12T19:23:13;21.60;99.90
9265;DHT22;4669;49.594;10.958;2023-08-12T19:28:16;21.70;99.90
9265;DHT22;4669;49.594;10.958;2023-08-12T19:33:18;21.70;99.90
9265;DHT22;4669;49.594;10.958;2023-08-12T19:38:21;21.60;99.90
9265;DHT22;4669;49.594;10.958;2023-08-12T19:43:23;21.60;99.90
9265;DHT22;4669;49.594;10.958;2023-08-12T19:48:25;21.60;99.90
9265;DHT22;4669;49.594;10.958;2023-08-12T19:53:29;21.50;99.90
9265;DHT22;4669;49.594;10.958;2023-08-12T19:58:30;21.50;99.90
9265;DHT22;4669;49.594;10.958;2023-08-12T20:03:32;21.40;99.90
9265;DHT22;4669;49.594;10.958;2023-08-12T20:08:36;21.40;99.90
9265;DHT22;4669;49.594;10.958;2023-08-12T20:13:38;21.40;99.90
9265;DHT22;4669;49.594;10.958;2023-08-12T20:18:39;21.30;99.90
9265;DHT22;4669;49.594;10.958;2023-08-12T20:23:43;21.30;99.90
9265;DHT22;4669;49.594;10.958;2023-08-12T20:28:45;21.30;99.90
9265;DHT22;4669;49.594;10.958;2023-08-12T20:33:46;21.30;99.90
9265;DHT22;4669;49.594;10.958;2023-08-12T20:38:50;21.30;99.90
9265;DHT22;4669;49.594;10.958;2023-08-12T20:43:52;21.30;99.90
9265;DHT22;4669;49.594;10.958;2023-08-12T20:48:54;21.30;99.90
9265;DHT22;4669;49.594;10.958;2023-08-12T20:53:57;21.30;99.90
9265;DHT22;4669;49.594;10.958;2023-08-12T20:58:59;21.30;99.90
9265;DHT22;4669;49.594;10.958;2023-08-12T21:04:01;21.30;99.90
9265;DHT22;4669;49.594;10.958;2023-08-12T21:09:04;21.30;99.90
9265;DHT22;4669;49.594;10.958;2023-08-12T21:14:06;21.20;99.90
9265;DHT22;4669;49.594;10.958;2023-08-12T21:19:08;21.10;99.90
9265;DHT22;4669;49.594;10.958;2023-08-12T21:24:11;21.00;99.90
9265;DHT22;4669;49.594;10.958;2023-08-12T21:29:13;21.00;99.90
9265;DHT22;4669;49.594;10.958;2023-08-12T21:34:15;21.00;99.90
9265;DHT22;4669;49.594;10.958;2023-08-12T21:39:18;21.00;99.90
9265;DHT22;4669;49.594;10.958;2023-08-12T21:44:20;21.00;99.90
9265;DHT22;4669;49.594;10.958;2023-08-12T21:49:22;21.00;99.90
9265;DHT22;4669;49.594;10.958;2023-08-12T21:54:25;21.00;99.90
9265;DHT22;4669;49.594;10.958;2023-08-12T21:59:27;21.00;99.90
